createdAt,value
2019-01-14T00:01:22.635Z,75.03
2019-01-14T00:04:12.106Z,75.18
2019-01-14T00:07:02.196Z,74.62
2019-01-14T00:09:51.318Z,74.51
2019-01-14T00:12:40.652Z,74.76
2019-01-14T00:15:31.031Z,75.29
2019-01-14T00:18:20.498Z,74.52
2019-01-14T00:21:09.998Z,74.95
2019-01-14T00:23:59.880Z,73.75
2019-01-14T00:26:49.774Z,73.17
2019-01-14T00:29:39.770Z,73.37
2019-01-14T00:32:29.337Z,73.83
2019-01-14T00:35:19.089Z,74.18
2019-01-14T00:38:09.047Z,74.42
2019-01-14T00:40:59.332Z,73.68
2019-01-14T00:43:49.122Z,73.31
2019-01-14T00:46:39.295Z,73.95
2019-01-14T00:49:28.827Z,74.12
2019-01-14T00:52:19.106Z,73.45
2019-01-14T00:55:10.450Z,74.06
2019-01-14T00:58:00.312Z,74.41
2019-01-14T01:00:50.362Z,74.25
2019-01-14T01:03:42.729Z,73.81
2019-01-14T01:06:32.210Z,73.99
2019-01-14T01:09:22.191Z,73.89
2019-01-14T01:12:12.528Z,74.43
2019-01-14T01:15:02.089Z,73.71
2019-01-14T01:17:52.261Z,74.09
2019-01-14T01:20:42.053Z,74.06
2019-01-14T01:23:31.859Z,74.61
2019-01-14T01:26:21.894Z,74.06
2019-01-14T01:29:12.069Z,74.32
2019-01-14T01:32:02.240Z,73.98
2019-01-14T01:34:52.265Z,74.65
2019-01-14T01:37:42.130Z,73.49
2019-01-14T01:40:32.144Z,72.85
2019-01-14T01:43:21.989Z,74.72
2019-01-14T01:46:12.169Z,74.42
2019-01-14T01:49:02.284Z,74.09
2019-01-14T01:51:51.734Z,74.46
2019-01-14T01:54:42.744Z,74.63
2019-01-14T01:57:32.818Z,74.13
2019-01-14T02:00:23.906Z,74.31
2019-01-14T02:03:14.198Z,74.54
2019-01-14T02:06:03.821Z,74.42
2019-01-14T02:08:54.483Z,74.20
2019-01-14T02:11:44.366Z,73.51
2019-01-14T02:14:34.497Z,74.63
2019-01-14T02:17:24.648Z,74.14
2019-01-14T02:20:16.806Z,73.71
2019-01-14T02:23:06.875Z,72.81
2019-01-14T02:25:56.539Z,73.83
2019-01-14T02:28:46.838Z,73.04
2019-01-14T02:31:36.901Z,72.26
2019-01-14T02:34:26.044Z,72.32
2019-01-14T02:37:15.463Z,70.62
2019-01-14T02:40:07.635Z,71.25
2019-01-14T02:42:57.634Z,70.02
2019-01-14T02:45:48.780Z,68.82
2019-01-14T02:48:38.564Z,71.12
2019-01-14T02:51:28.488Z,70.11
2019-01-14T02:54:18.216Z,70.32
2019-01-14T02:57:07.837Z,69.60
2019-01-14T02:59:57.864Z,72.41
2019-01-14T03:02:47.784Z,71.78
2019-01-14T03:05:37.619Z,69.71
2019-01-14T03:08:27.824Z,70.61
2019-01-14T03:11:17.988Z,70.52
2019-01-14T03:14:07.610Z,71.41
2019-01-14T03:16:57.855Z,69.96
2019-01-14T03:19:48.117Z,72.45
2019-01-14T03:22:38.512Z,69.36
2019-01-14T03:25:28.658Z,70.09
2019-01-14T03:28:18.700Z,70.25
2019-01-14T03:31:08.627Z,68.71
2019-01-14T03:33:58.156Z,69.99
2019-01-14T03:36:48.220Z,69.04
2019-01-14T03:39:38.345Z,66.95
2019-01-14T03:42:28.368Z,67.18
2019-01-14T03:45:18.221Z,71.51
2019-01-14T03:48:08.279Z,68.76
2019-01-14T03:50:58.362Z,69.13
2019-01-14T03:53:48.245Z,69.69
2019-01-14T03:56:38.237Z,68.95
2019-01-14T03:59:28.092Z,69.84
2019-01-14T04:02:18.021Z,71.20
2019-01-14T04:05:09.718Z,71.59
2019-01-14T04:07:59.507Z,71.81
2019-01-14T04:10:49.139Z,70.32
2019-01-14T04:13:38.946Z,68.98
2019-01-14T04:16:29.003Z,70.17
2019-01-14T04:19:18.691Z,68.04
2019-01-14T04:22:08.981Z,68.78
2019-01-14T04:24:59.164Z,70.09
2019-01-14T04:27:49.052Z,69.11
2019-01-14T04:30:39.094Z,68.81
2019-01-14T04:33:29.410Z,68.50
2019-01-14T04:36:19.099Z,70.76
2019-01-14T04:39:11.034Z,71.19
2019-01-14T04:42:00.885Z,69.95
2019-01-14T04:44:51.687Z,67.30
2019-01-14T04:47:41.761Z,70.59
2019-01-14T04:50:31.322Z,71.28
2019-01-14T04:53:21.554Z,70.61
2019-01-14T04:56:11.333Z,68.11
2019-01-14T04:59:01.355Z,70.33
2019-01-14T05:01:51.169Z,69.24
2019-01-14T05:04:41.209Z,71.39
2019-01-14T05:07:30.766Z,70.11
2019-01-14T05:10:21.037Z,71.22
2019-01-14T05:13:11.098Z,71.53
2019-01-14T05:16:01.184Z,69.50
2019-01-14T05:18:51.309Z,70.74
2019-01-14T05:21:41.702Z,70.92
2019-01-14T05:24:31.643Z,71.76
2019-01-14T05:27:21.265Z,70.80
2019-01-14T05:30:12.792Z,70.91
2019-01-14T05:33:03.118Z,71.45
2019-01-14T05:35:53.307Z,70.94
2019-01-14T05:38:43.354Z,71.57
2019-01-14T05:41:33.198Z,69.49
2019-01-14T05:44:23.102Z,71.28
2019-01-14T05:47:13.142Z,71.18
2019-01-14T05:50:03.169Z,70.64
2019-01-14T05:52:53.210Z,71.80
2019-01-14T05:55:42.852Z,71.64
2019-01-14T05:58:32.964Z,71.56
2019-01-14T06:01:22.802Z,71.29
2019-01-14T06:04:12.582Z,71.35
2019-01-14T06:07:02.420Z,71.38
2019-01-14T06:09:52.574Z,70.29
2019-01-14T06:12:42.750Z,70.85
2019-01-14T06:15:32.593Z,71.34
2019-01-14T06:18:22.617Z,69.98
2019-01-14T06:21:12.397Z,71.17
2019-01-14T06:24:02.502Z,69.74
2019-01-14T06:26:52.358Z,71.30
2019-01-14T06:29:42.098Z,70.28
2019-01-14T06:32:33.203Z,70.67
2019-01-14T06:35:24.102Z,71.35
2019-01-14T06:38:14.156Z,71.08
2019-01-14T06:41:06.894Z,70.37
2019-01-14T06:43:56.673Z,70.81
2019-01-14T06:46:46.193Z,71.29
2019-01-14T06:49:36.154Z,72.08
2019-01-14T06:52:25.961Z,71.20
2019-01-14T06:55:16.652Z,70.88
2019-01-14T06:58:07.801Z,71.38
2019-01-14T07:00:58.138Z,71.40
2019-01-14T07:03:48.204Z,69.77
2019-01-14T07:06:37.950Z,70.11
2019-01-14T07:09:27.686Z,71.16
2019-01-14T07:12:17.224Z,71.12
2019-01-14T07:15:08.108Z,71.52
2019-01-14T07:17:58.002Z,70.65
2019-01-14T07:20:47.793Z,69.51
2019-01-14T07:23:37.585Z,71.03
2019-01-14T07:26:27.430Z,69.09
2019-01-14T07:29:17.743Z,66.43
2019-01-14T07:32:07.629Z,64.48
2019-01-14T07:34:57.777Z,65.84
2019-01-14T07:37:48.532Z,66.94
2019-01-14T07:40:38.025Z,69.13
2019-01-14T07:43:27.985Z,66.83
2019-01-14T07:46:17.344Z,66.96
2019-01-14T07:49:06.830Z,63.94
2019-01-14T07:51:56.801Z,68.34
2019-01-14T07:54:46.932Z,65.98
2019-01-14T07:57:37.266Z,69.02
2019-01-14T08:00:28.110Z,65.75
2019-01-14T08:03:19.260Z,67.13
2019-01-14T08:06:08.769Z,66.59
2019-01-14T08:08:58.824Z,67.15
2019-01-14T08:11:48.819Z,62.91
2019-01-14T08:14:38.959Z,66.54
2019-01-14T08:17:28.595Z,68.43
2019-01-14T08:20:18.591Z,63.95
2019-01-14T08:23:08.912Z,65.97
2019-01-14T08:25:58.694Z,67.50
2019-01-14T08:28:48.147Z,62.62
2019-01-14T08:31:38.378Z,62.30
2019-01-14T08:34:28.127Z,64.69
2019-01-14T08:37:17.926Z,66.65
2019-01-14T08:40:09.698Z,64.96
2019-01-14T08:43:00.868Z,62.95
2019-01-14T08:45:50.938Z,65.89
2019-01-14T08:48:48.665Z,68.65
2019-01-14T08:51:33.032Z,66.65
2019-01-14T08:54:22.815Z,69.23
2019-01-14T08:57:12.749Z,68.17
2019-01-14T09:00:03.521Z,67.40
2019-01-14T09:02:54.618Z,68.62
2019-01-14T09:05:44.515Z,69.64
2019-01-14T09:08:34.480Z,69.93
2019-01-14T09:11:23.618Z,66.86
2019-01-14T09:14:13.277Z,68.55
2019-01-14T09:17:06.567Z,69.10
2019-01-14T09:19:56.392Z,70.75
2019-01-14T09:22:46.758Z,70.65
2019-01-14T09:25:36.968Z,69.71
2019-01-14T09:28:27.035Z,69.53
2019-01-14T09:31:16.935Z,70.95
2019-01-14T09:34:07.748Z,71.12
2019-01-14T09:36:57.918Z,70.09
2019-01-14T09:39:48.001Z,70.01
2019-01-14T09:42:38.095Z,71.12
2019-01-14T09:45:27.873Z,70.72
2019-01-14T09:48:17.660Z,68.01
2019-01-14T09:51:07.485Z,68.59
2019-01-14T09:53:57.577Z,69.57
2019-01-14T09:56:47.887Z,67.95
2019-01-14T09:59:37.873Z,64.87
2019-01-14T10:02:27.737Z,68.02
2019-01-14T10:05:20.138Z,62.93
2019-01-14T10:08:10.888Z,65.23
2019-01-14T10:11:00.836Z,67.73
2019-01-14T10:13:51.080Z,69.59
2019-01-14T10:16:42.387Z,70.78
2019-01-14T10:19:32.385Z,69.51
2019-01-14T10:22:22.223Z,70.68
2019-01-14T10:25:12.791Z,72.06
2019-01-14T10:28:02.973Z,71.80
2019-01-14T10:30:53.536Z,71.70
2019-01-14T10:33:43.617Z,71.06
2019-01-14T10:36:33.667Z,70.69
2019-01-14T10:39:23.662Z,71.79
2019-01-14T10:42:13.596Z,69.40
2019-01-14T10:45:03.774Z,71.35
2019-01-14T10:47:53.541Z,72.27
2019-01-14T10:50:43.630Z,68.78
2019-01-14T10:53:33.437Z,72.31
2019-01-14T10:56:23.392Z,73.46
2019-01-14T10:59:13.317Z,74.33
2019-01-14T11:02:04.313Z,71.68
2019-01-14T11:04:54.761Z,65.59
2019-01-14T11:07:44.641Z,64.62
2019-01-14T11:10:34.290Z,64.86
2019-01-14T11:13:24.253Z,64.28
2019-01-14T11:16:14.400Z,65.23
2019-01-14T11:19:04.763Z,63.19
2019-01-14T11:21:54.921Z,66.56
2019-01-14T11:24:51.700Z,66.73
2019-01-14T11:27:41.465Z,66.97
2019-01-14T11:30:33.546Z,69.11
2019-01-14T11:33:23.646Z,67.10
2019-01-14T11:36:13.502Z,66.65
2019-01-14T11:39:05.589Z,65.32
2019-01-14T11:41:55.640Z,69.75
2019-01-14T11:44:45.888Z,67.29
2019-01-14T11:47:36.008Z,67.24
2019-01-14T11:50:26.078Z,67.79
2019-01-14T11:53:17.236Z,66.99
2019-01-14T11:56:07.599Z,68.91
2019-01-14T11:58:57.567Z,69.75
2019-01-14T12:01:47.330Z,67.56
2019-01-14T12:04:37.484Z,68.66
2019-01-14T12:07:27.917Z,68.82
2019-01-14T12:10:18.134Z,67.34
2019-01-14T12:13:07.673Z,66.58
2019-01-14T12:15:57.362Z,69.35
2019-01-14T12:18:46.940Z,69.68
2019-01-14T12:21:36.899Z,70.50
2019-01-14T12:24:26.685Z,70.58
2019-01-14T12:27:16.558Z,70.36
2019-01-14T12:30:19.451Z,69.80
2019-01-14T12:33:09.912Z,69.64
2019-01-14T12:35:59.638Z,65.57
2019-01-14T12:38:49.506Z,68.14
2019-01-14T12:41:39.225Z,68.71
2019-01-14T12:44:29.085Z,60.90
2019-01-14T12:47:18.815Z,64.85
2019-01-14T12:50:11.925Z,62.66
2019-01-14T12:53:01.663Z,65.23
2019-01-14T12:55:52.032Z,64.92
2019-01-14T12:58:41.628Z,64.89
2019-01-14T13:01:32.109Z,67.46
2019-01-14T13:04:22.142Z,66.42
2019-01-14T13:07:12.378Z,68.04
2019-01-14T13:10:02.194Z,69.90
2019-01-14T13:12:52.262Z,70.61
2019-01-14T13:15:42.183Z,70.77
2019-01-14T13:18:31.937Z,69.57
2019-01-14T13:21:22.209Z,70.63
2019-01-14T13:24:12.397Z,69.57
2019-01-14T13:27:03.344Z,70.54
2019-01-14T13:29:53.313Z,71.65
2019-01-14T13:32:43.434Z,68.79
2019-01-14T13:35:33.392Z,66.17
2019-01-14T13:38:23.138Z,69.63
2019-01-14T13:41:13.040Z,71.96
2019-01-14T13:44:02.913Z,70.17
2019-01-14T13:46:53.987Z,68.33
2019-01-14T13:49:46.632Z,67.72
2019-01-14T13:52:36.940Z,66.15
2019-01-14T13:55:27.549Z,66.98
2019-01-14T13:58:17.712Z,68.75
2019-01-14T14:01:07.616Z,67.25
2019-01-14T14:03:57.309Z,68.46
2019-01-14T14:06:47.412Z,67.01
2019-01-14T14:09:41.158Z,67.92
2019-01-14T14:12:28.226Z,68.28
2019-01-14T14:15:17.920Z,69.63
2019-01-14T14:18:08.061Z,70.45
2019-01-14T14:20:58.209Z,70.05
2019-01-14T14:23:48.025Z,72.13
2019-01-14T14:26:37.642Z,78.40
2019-01-14T14:29:27.608Z,79.82
2019-01-14T14:32:17.866Z,82.16
2019-01-14T14:35:08.585Z,81.80
2019-01-14T14:38:01.342Z,82.11
2019-01-14T14:40:50.631Z,82.13
2019-01-14T14:43:40.396Z,82.11
2019-01-14T14:46:30.643Z,81.54
2019-01-14T14:49:20.710Z,81.11
2019-01-14T14:52:10.779Z,81.06
2019-01-14T14:55:00.864Z,80.54
2019-01-14T14:57:51.067Z,80.39
2019-01-14T15:00:40.856Z,79.19
2019-01-14T15:03:31.625Z,78.37
2019-01-14T15:06:21.336Z,77.69
2019-01-14T15:09:11.442Z,77.88
2019-01-14T15:12:01.738Z,77.83
2019-01-14T15:14:52.136Z,77.38
2019-01-14T15:17:42.162Z,76.95
2019-01-14T15:20:32.447Z,77.24
2019-01-14T15:23:22.923Z,76.94
2019-01-14T15:26:12.981Z,77.18
2019-01-14T15:29:02.860Z,76.14
2019-01-14T15:31:52.800Z,75.73
2019-01-14T15:34:42.426Z,75.78
2019-01-14T15:37:33.113Z,75.44
2019-01-14T15:40:25.027Z,75.61
2019-01-14T15:43:14.422Z,75.16
2019-01-14T15:46:04.226Z,75.54
2019-01-14T15:48:54.252Z,75.17
2019-01-14T15:51:43.837Z,75.37
2019-01-14T15:54:34.133Z,74.97
2019-01-14T15:57:24.072Z,74.65
2019-01-14T16:00:16.548Z,74.41
2019-01-14T16:03:06.637Z,74.26
2019-01-14T16:05:56.516Z,74.61
2019-01-14T16:08:46.625Z,74.66
2019-01-14T16:11:36.616Z,74.69
2019-01-14T16:14:26.869Z,74.44
2019-01-14T16:17:16.498Z,74.28
2019-01-14T16:20:08.963Z,73.99
2019-01-14T16:22:58.968Z,74.28
2019-01-14T16:25:49.140Z,73.79
2019-01-14T16:28:40.134Z,74.10
2019-01-14T16:31:29.846Z,74.15
2019-01-14T16:34:19.594Z,73.35
2019-01-14T16:37:09.985Z,73.05
2019-01-14T16:39:59.844Z,73.20
2019-01-14T16:42:50.052Z,72.54
2019-01-14T16:45:40.222Z,72.85
2019-01-14T16:48:30.148Z,72.63
2019-01-14T16:51:19.175Z,72.87
2019-01-14T16:54:09.300Z,72.47
2019-01-14T16:56:59.273Z,72.18
2019-01-14T16:59:49.497Z,72.42
2019-01-14T17:02:39.811Z,72.90
2019-01-14T17:05:29.859Z,72.07
2019-01-14T17:08:19.917Z,72.70
2019-01-14T17:11:09.580Z,72.76
2019-01-14T17:13:59.197Z,72.56
2019-01-14T17:16:48.961Z,72.99
2019-01-14T17:19:39.118Z,72.46
2019-01-14T17:22:29.311Z,72.53
2019-01-14T17:25:19.303Z,72.48
2019-01-14T17:28:09.441Z,72.77
2019-01-14T17:30:58.938Z,72.09
2019-01-14T17:33:48.780Z,72.39
2019-01-14T17:36:38.340Z,72.29
2019-01-14T17:39:29.214Z,72.57
2019-01-14T17:42:19.981Z,71.85
2019-01-14T17:45:10.595Z,72.85
2019-01-14T17:48:00.058Z,71.34
2019-01-14T17:50:50.215Z,71.95
2019-01-14T17:53:40.418Z,71.33
2019-01-14T17:56:29.966Z,72.57
2019-01-14T17:59:20.799Z,72.00
2019-01-14T18:02:10.319Z,71.55
2019-01-14T18:04:59.852Z,71.89
2019-01-14T18:07:49.447Z,72.22
2019-01-14T18:10:40.177Z,71.85
2019-01-14T18:13:30.281Z,71.69
2019-01-14T18:16:19.710Z,72.52
2019-01-14T18:19:09.532Z,72.58
2019-01-14T18:21:59.264Z,72.23
2019-01-14T18:24:48.962Z,72.31
2019-01-14T18:27:38.414Z,72.41
2019-01-14T18:30:28.402Z,72.67
2019-01-14T18:33:21.568Z,72.43
2019-01-14T18:36:11.913Z,72.50
2019-01-14T18:39:01.700Z,72.17
2019-01-14T18:41:52.325Z,72.20
2019-01-14T18:44:42.464Z,72.36
2019-01-14T18:47:31.939Z,71.38
2019-01-14T18:50:24.128Z,71.89
2019-01-14T18:53:14.090Z,72.26
2019-01-14T18:56:03.548Z,72.67
2019-01-14T18:58:54.934Z,72.43
2019-01-14T19:01:44.817Z,72.20
2019-01-14T19:04:34.803Z,71.96
2019-01-14T19:07:25.069Z,72.26
2019-01-14T19:10:15.872Z,71.66
2019-01-14T19:13:06.046Z,71.61
2019-01-14T19:15:58.551Z,71.38
2019-01-14T19:18:48.012Z,72.21
2019-01-14T19:21:37.954Z,72.18
2019-01-14T19:24:27.790Z,71.90
2019-01-14T19:27:18.186Z,71.80
2019-01-14T19:30:12.430Z,72.14
2019-01-14T19:33:03.395Z,71.75
2019-01-14T19:35:53.676Z,72.18
2019-01-14T19:38:43.509Z,71.13
2019-01-14T19:41:32.965Z,71.38
2019-01-14T19:44:22.892Z,71.53
2019-01-14T19:47:12.736Z,71.63
2019-01-14T19:50:03.817Z,70.40
2019-01-14T19:52:55.633Z,70.90
2019-01-14T19:55:45.661Z,71.12
2019-01-14T19:58:35.463Z,71.16
2019-01-14T20:01:25.229Z,71.89
2019-01-14T20:04:15.199Z,71.05
2019-01-14T20:07:10.503Z,71.33
2019-01-14T20:09:56.113Z,70.27
2019-01-14T20:12:46.404Z,70.48
2019-01-14T20:15:36.088Z,71.25
2019-01-14T20:18:26.456Z,71.06
2019-01-14T20:21:16.457Z,71.45
2019-01-14T20:24:07.043Z,70.32
2019-01-14T20:26:57.492Z,69.88
2019-01-14T20:29:47.645Z,69.79
2019-01-14T20:32:37.432Z,70.79
2019-01-14T20:35:27.995Z,70.24
2019-01-14T20:38:17.895Z,70.97
2019-01-14T20:41:08.029Z,71.46
2019-01-14T20:44:05.047Z,71.57
2019-01-14T20:46:49.608Z,70.98
2019-01-14T20:49:39.389Z,71.72
2019-01-14T20:52:29.341Z,71.54
2019-01-14T20:55:19.393Z,71.42
2019-01-14T20:58:09.642Z,71.75
2019-01-14T21:00:59.401Z,71.16
2019-01-14T21:03:49.685Z,71.68
2019-01-14T21:06:39.649Z,71.58
2019-01-14T21:09:29.209Z,71.90
2019-01-14T21:12:19.005Z,70.81
2019-01-14T21:15:09.168Z,71.96
2019-01-14T21:17:59.427Z,71.91
2019-01-14T21:20:49.811Z,72.28
2019-01-14T21:23:39.867Z,72.20
2019-01-14T21:26:29.994Z,71.49
2019-01-14T21:29:20.169Z,71.70
2019-01-14T21:32:09.605Z,71.75
2019-01-14T21:34:59.582Z,71.70
2019-01-14T21:37:50.962Z,71.69
2019-01-14T21:40:41.268Z,72.00
2019-01-14T21:43:31.401Z,72.04
2019-01-14T21:46:20.652Z,72.02
2019-01-14T21:49:10.882Z,72.43
2019-01-14T21:52:01.689Z,72.56
2019-01-14T21:54:51.766Z,71.95
2019-01-14T21:57:42.076Z,72.68
2019-01-14T22:00:32.111Z,72.54
2019-01-14T22:03:21.811Z,72.30
2019-01-14T22:06:11.359Z,72.18
2019-01-14T22:09:01.111Z,71.26
2019-01-14T22:11:52.442Z,71.54
2019-01-14T22:14:42.301Z,72.46
2019-01-14T22:17:32.290Z,71.86
2019-01-14T22:20:28.619Z,72.30
2019-01-14T22:23:22.044Z,71.51
2019-01-14T22:26:11.880Z,71.39
2019-01-14T22:29:01.798Z,70.85
2019-01-14T22:31:51.967Z,71.88
2019-01-14T22:34:41.766Z,72.26
2019-01-14T22:37:31.549Z,71.96
2019-01-14T22:40:21.840Z,71.25
2019-01-14T22:43:11.493Z,71.72
2019-01-14T22:46:01.434Z,71.97
2019-01-14T22:48:51.361Z,72.01
2019-01-14T22:51:41.080Z,72.19
2019-01-14T22:54:30.600Z,72.14
2019-01-14T22:57:21.899Z,72.01
2019-01-14T23:01:07.282Z,71.96
2019-01-14T23:03:57.352Z,71.48
2019-01-14T23:06:46.836Z,71.78
2019-01-14T23:09:37.647Z,72.06
2019-01-14T23:12:27.870Z,72.14
2019-01-14T23:15:18.207Z,71.99
2019-01-14T23:18:08.325Z,71.87
2019-01-14T23:20:58.412Z,72.15
2019-01-14T23:23:47.955Z,71.96
2019-01-14T23:26:37.234Z,70.71
2019-01-14T23:29:26.969Z,71.83
2019-01-14T23:32:16.836Z,72.26
2019-01-14T23:35:07.491Z,71.80
2019-01-14T23:37:57.527Z,72.57
2019-01-14T23:40:47.211Z,72.10
2019-01-14T23:43:36.954Z,71.97
2019-01-14T23:46:26.640Z,72.07
2019-01-14T23:49:16.782Z,72.17
2019-01-14T23:52:06.679Z,72.09
2019-01-14T23:54:56.760Z,72.00
2019-01-14T23:57:46.998Z,72.29
